Terminal Aerodrome Forecast
Issued by NWS Austin/San Antonio, TX

Home | Current Version | Previous Version | Text Only | Print | Product List | Glossary On
Versions: 1 2 3 4 5 6 7 8 9 10 11 12 13 14 15 16 17 18 19 20 21 22 23 24 25 26 27 28 29 30 31 32 33 34 35 36
721
FTUS44 KEWX 181644 AAC
TAFAUS
TAF AMD
KAUS 181644Z 1817/1918 35007KT P6SM BKN007 OVC025
     FM181800 35007KT P6SM SCT015 BKN025
     FM190200 VRB03KT P6SM OVC012
     FM190900 22003KT P6SM SCT015
     FM191000 VRB02KT 5SM BR SCT005
     FM191500 22004KT P6SM SKC=

USA.gov is the U.S. government's official web portal to all federal, state and local government web resources and services.